sensor_id;sensor_type;location;lat;lon;timestamp;pressure;altitude;pressure_sealevel;temperature;humidity
72525;BME280;60547;48.502;8.996;2023-01-26T00:00:41;98465.59;;;0.86;86.06
72525;BME280;60547;48.502;8.996;2023-01-26T00:03:06;98467.16;;;0.87;86.28
72525;BME280;60547;48.502;8.996;2023-01-26T00:05:35;98462.09;;;0.70;86.04
72525;BME280;60547;48.502;8.996;2023-01-26T00:08:01;98465.13;;;0.65;86.82
72525;BME280;60547;48.502;8.996;2023-01-26T00:10:26;98448.06;;;0.72;85.75
72525;BME280;60547;48.502;8.996;2023-01-26T00:12:52;98442.84;;;0.67;86.45
72525;BME280;60547;48.502;8.996;2023-01-26T00:15:17;98446.38;;;0.67;87.41
72525;BME280;60547;48.502;8.996;2023-01-26T00:17:43;98427.06;;;0.60;87.11
72525;BME280;60547;48.502;8.996;2023-01-26T00:20:09;98436.75;;;0.73;86.27
72525;BME280;60547;48.502;8.996;2023-01-26T00:22:35;98434.00;;;0.73;86.73
72525;BME280;60547;48.502;8.996;2023-01-26T00:25:00;98428.59;;;0.77;86.55
72525;BME280;60547;48.502;8.996;2023-01-26T00:27:26;98436.22;;;0.68;86.57
72525;BME280;60547;48.502;8.996;2023-01-26T00:29:51;98430.47;;;0.38;87.70
72525;BME280;60547;48.502;8.996;2023-01-26T00:32:17;98422.25;;;0.38;88.22
72525;BME280;60547;48.502;8.996;2023-01-26T00:34:44;98424.00;;;0.46;87.74
72525;BME280;60547;48.502;8.996;2023-01-26T00:37:09;98417.81;;;0.49;87.32
72525;BME280;60547;48.502;8.996;2023-01-26T00:39:35;98409.41;;;0.22;87.85
72525;BME280;60547;48.502;8.996;2023-01-26T00:42:00;98406.41;;;0.12;88.48
72525;BME280;60547;48.502;8.996;2023-01-26T00:44:35;98402.34;;;0.21;88.69
72525;BME280;60547;48.502;8.996;2023-01-26T00:47:01;98411.78;;;0.24;88.16
72525;BME280;60547;48.502;8.996;2023-01-26T00:49:27;98393.69;;;0.19;88.54
72525;BME280;60547;48.502;8.996;2023-01-26T00:51:52;98388.66;;;0.21;88.24
72525;BME280;60547;48.502;8.996;2023-01-26T00:54:18;98390.31;;;0.26;88.66
72525;BME280;60547;48.502;8.996;2023-01-26T00:56:43;98375.84;;;0.25;88.16
72525;BME280;60547;48.502;8.996;2023-01-26T00:59:09;98391.22;;;0.14;88.87
72525;BME280;60547;48.502;8.996;2023-01-26T01:01:35;98386.09;;;0.28;88.23
72525;BME280;60547;48.502;8.996;2023-01-26T01:04:00;98375.50;;;0.27;88.33
72525;BME280;60547;48.502;8.996;2023-01-26T01:06:25;98374.88;;;0.34;88.05
72525;BME280;60547;48.502;8.996;2023-01-26T01:08:51;98373.00;;;0.38;87.46
72525;BME280;60547;48.502;8.996;2023-01-26T01:11:16;98364.50;;;0.43;87.66
72525;BME280;60547;48.502;8.996;2023-01-26T01:13:42;98368.25;;;0.54;87.38
72525;BME280;60547;48.502;8.996;2023-01-26T01:16:09;98378.50;;;0.57;88.48
72525;BME280;60547;48.502;8.996;2023-01-26T01:18:36;98367.41;;;0.50;87.88
72525;BME280;60547;48.502;8.996;2023-01-26T01:21:12;98372.16;;;0.53;87.84
72525;BME280;60547;48.502;8.996;2023-01-26T01:23:38;98366.88;;;0.44;87.87
72525;BME280;60547;48.502;8.996;2023-01-26T01:26:04;98364.50;;;0.43;88.50
72525;BME280;60547;48.502;8.996;2023-01-26T01:28:32;98368.25;;;0.54;87.93
72525;BME280;60547;48.502;8.996;2023-01-26T01:30:57;98365.53;;;0.54;87.90
72525;BME280;60547;48.502;8.996;2023-01-26T01:33:23;98371.72;;;0.51;88.35
72525;BME280;60547;48.502;8.996;2023-01-26T01:35:59;98372.50;;;0.51;87.78
72525;BME280;60547;48.502;8.996;2023-01-26T01:38:25;98370.28;;;0.57;88.05
72525;BME280;60547;48.502;8.996;2023-01-26T01:40:52;98360.06;;;0.54;87.88
72525;BME280;60547;48.502;8.996;2023-01-26T01:43:17;98368.25;;;0.54;87.93
72525;BME280;60547;48.502;8.996;2023-01-26T01:45:45;98354.56;;;0.54;88.24
72525;BME280;60547;48.502;8.996;2023-01-26T01:48:30;98365.53;;;0.54;87.42
72525;BME280;60547;48.502;8.996;2023-01-26T01:51:04;98356.59;;;0.57;87.36
72525;BME280;60547;48.502;8.996;2023-01-26T01:53:35;98353.00;;;0.53;87.46
72525;BME280;60547;48.502;8.996;2023-01-26T01:56:05;98353.56;;;0.62;87.97
72525;BME280;60547;48.502;8.996;2023-01-26T01:58:36;98350.31;;;0.56;87.74
72525;BME280;60547;48.502;8.996;2023-01-26T02:01:04;98351.41;;;0.52;88.01
72525;BME280;60547;48.502;8.996;2023-01-26T02:03:30;98357.19;;;0.66;87.37
72525;BME280;60547;48.502;8.996;2023-01-26T02:06:00;98353.13;;;0.60;87.42
72525;BME280;60547;48.502;8.996;2023-01-26T02:08:36;98345.34;;;0.62;87.52
72525;BME280;60547;48.502;8.996;2023-01-26T02:11:16;98344.50;;;0.58;87.48
72525;BME280;60547;48.502;8.996;2023-01-26T02:13:43;98343.34;;;0.59;87.46
72525;BME280;60547;48.502;8.996;2023-01-26T02:16:10;98340.09;;;0.53;87.13
72525;BME280;60547;48.502;8.996;2023-01-26T02:18:36;98334.91;;;0.48;87.47
72525;BME280;60547;48.502;8.996;2023-01-26T02:21:06;98345.22;;;0.55;87.46
72525;BME280;60547;48.502;8.996;2023-01-26T02:26:09;98321.16;;;0.45;87.50
72525;BME280;60547;48.502;8.996;2023-01-26T02:28:35;98316.25;;;0.35;88.25
72525;BME280;60547;48.502;8.996;2023-01-26T02:31:02;98329.78;;;0.47;88.05
72525;BME280;60547;48.502;8.996;2023-01-26T02:33:30;98335.41;;;0.54;87.81
72525;BME280;60547;48.502;8.996;2023-01-26T02:35:56;98322.72;;;0.46;87.48
72525;BME280;60547;48.502;8.996;2023-01-26T02:38:25;98323.31;;;0.55;87.86
72525;BME280;60547;48.502;8.996;2023-01-26T02:41:02;98323.75;;;0.57;88.14
72525;BME280;60547;48.502;8.996;2023-01-26T02:43:30;98317.47;;;0.56;88.26
72525;BME280;60547;48.502;8.996;2023-01-26T02:45:56;98307.31;;;0.57;88.08
72525;BME280;60547;48.502;8.996;2023-01-26T02:48:22;98317.84;;;0.55;88.66
72525;BME280;60547;48.502;8.996;2023-01-26T02:51:06;98324.47;;;0.54;88.65
72525;BME280;60547;48.502;8.996;2023-01-26T02:53:32;98318.13;;;0.50;88.13
72525;BME280;60547;48.502;8.996;2023-01-26T02:55:57;98319.41;;;0.56;88.17
72525;BME280;60547;48.502;8.996;2023-01-26T02:58:23;98313.94;;;0.56;87.64
72525;BME280;60547;48.502;8.996;2023-01-26T03:00:48;98306.25;;;0.61;87.73
72525;BME280;60547;48.502;8.996;2023-01-26T03:03:23;98310.06;;;0.57;87.77
72525;BME280;60547;48.502;8.996;2023-01-26T03:05:50;98309.97;;;0.53;87.62
72525;BME280;60547;48.502;8.996;2023-01-26T03:08:15;98313.44;;;0.50;87.33
72525;BME280;60547;48.502;8.996;2023-01-26T03:10:41;98309.19;;;0.53;87.55
72525;BME280;60547;48.502;8.996;2023-01-26T03:13:07;98311.22;;;0.56;88.35
72525;BME280;60547;48.502;8.996;2023-01-26T03:15:33;98306.88;;;0.55;87.79
72525;BME280;60547;48.502;8.996;2023-01-26T03:18:13;98306.88;;;0.55;87.60
72525;BME280;60547;48.502;8.996;2023-01-26T03:20:59;98301.13;;;0.41;87.63
72525;BME280;60547;48.502;8.996;2023-01-26T03:23:43;98295.19;;;0.19;88.43
72525;BME280;60547;48.502;8.996;2023-01-26T03:26:27;98292.25;;;0.28;88.66
72525;BME280;60547;48.502;8.996;2023-01-26T03:29:11;98294.50;;;0.42;89.19
72525;BME280;60547;48.502;8.996;2023-01-26T03:31:37;98288.44;;;0.52;89.07
72525;BME280;60547;48.502;8.996;2023-01-26T03:34:02;98286.94;;;0.54;88.05
72525;BME280;60547;48.502;8.996;2023-01-26T03:36:28;98288.88;;;0.54;89.14
72525;BME280;60547;48.502;8.996;2023-01-26T03:38:53;98282.69;;;0.38;89.01
72525;BME280;60547;48.502;8.996;2023-01-26T03:41:19;98274.75;;;0.32;89.21
72525;BME280;60547;48.502;8.996;2023-01-26T03:44:03;98275.69;;;0.40;89.41
72525;BME280;60547;48.502;8.996;2023-01-26T03:46:47;98276.91;;;0.43;89.70
72525;BME280;60547;48.502;8.996;2023-01-26T03:49:31;98272.31;;;0.47;89.54
72525;BME280;60547;48.502;8.996;2023-01-26T03:52:15;98268.63;;;0.39;89.06
72525;BME280;60547;48.502;8.996;2023-01-26T03:54:59;98277.22;;;0.38;89.48
72525;BME280;60547;48.502;8.996;2023-01-26T03:57:42;98267.25;;;0.29;89.26
72525;BME280;60547;48.502;8.996;2023-01-26T04:00:27;98267.63;;;0.28;89.46
72525;BME280;60547;48.502;8.996;2023-01-26T04:02:52;98271.94;;;0.29;89.97
72525;BME280;60547;48.502;8.996;2023-01-26T04:05:40;98266.63;;;0.36;89.67
72525;BME280;60547;48.502;8.996;2023-01-26T04:08:24;98270.22;;;0.21;90.43
72525;BME280;60547;48.502;8.996;2023-01-26T04:10:53;98274.31;;;0.30;90.11
72525;BME280;60547;48.502;8.996;2023-01-26T04:13:21;98270.59;;;0.39;89.70
72525;BME280;60547;48.502;8.996;2023-01-26T04:16:06;98277.63;;;0.40;89.54
72525;BME280;60547;48.502;8.996;2023-01-26T04:18:51;98266.75;;;0.43;89.91
72525;BME280;60547;48.502;8.996;2023-01-26T04:21:35;98267.41;;;0.37;89.63
72525;BME280;60547;48.502;8.996;2023-01-26T04:24:04;98274.03;;;0.36;90.35
72525;BME280;60547;48.502;8.996;2023-01-26T04:26:39;98275.34;;;0.42;90.31
72525;BME280;60547;48.502;8.996;2023-01-26T04:29:10;98275.41;;;0.45;90.95
72525;BME280;60547;48.502;8.996;2023-01-26T04:31:37;98280.53;;;0.47;91.48
72525;BME280;60547;48.502;8.996;2023-01-26T04:34:04;98272.03;;;0.52;90.64
72525;BME280;60547;48.502;8.996;2023-01-26T04:36:31;98266.84;;;0.47;90.66
72525;BME280;60547;48.502;8.996;2023-01-26T04:38:57;98258.91;;;0.42;90.73
72525;BME280;60547;48.502;8.996;2023-01-26T04:41:23;98260.94;;;0.45;91.28
72525;BME280;60547;48.502;8.996;2023-01-26T04:43:49;98251.94;;;0.44;91.13
72525;BME280;60547;48.502;8.996;2023-01-26T04:46:15;98257.03;;;0.46;91.12
72525;BME280;60547;48.502;8.996;2023-01-26T04:48:41;98248.25;;;0.37;91.44
72525;BME280;60547;48.502;8.996;2023-01-26T04:51:12;98248.31;;;0.40;90.94
72525;BME280;60547;48.502;8.996;2023-01-26T04:53:38;98249.41;;;0.36;91.89
72525;BME280;60547;48.502;8.996;2023-01-26T04:56:04;98235.22;;;0.30;91.93
72525;BME280;60547;48.502;8.996;2023-01-26T04:58:31;98245.81;;;0.31;91.65
72525;BME280;60547;48.502;8.996;2023-01-26T05:00:57;98249.69;;;0.30;91.45
72525;BME280;60547;48.502;8.996;2023-01-26T05:03:24;98243.44;;;0.30;92.06
72525;BME280;60547;48.502;8.996;2023-01-26T05:05:54;98238.25;;;0.25;92.05
72525;BME280;60547;48.502;8.996;2023-01-26T05:08:21;98235.50;;;0.25;92.00
72525;BME280;60547;48.502;8.996;2023-01-26T05:10:47;98238.69;;;0.27;92.53
72525;BME280;60547;48.502;8.996;2023-01-26T05:13:14;98235.06;;;0.23;91.76
72525;BME280;60547;48.502;8.996;2023-01-26T05:15:39;98241.91;;;0.13;92.36
72525;BME280;60547;48.502;8.996;2023-01-26T05:18:06;98242.19;;;0.08;92.89
72525;BME280;60547;48.502;8.996;2023-01-26T05:20:32;98230.91;;;0.10;92.96
72525;BME280;60547;48.502;8.996;2023-01-26T05:22:58;98245.66;;;0.05;93.20
72525;BME280;60547;48.502;8.996;2023-01-26T05:25:24;98245.88;;;0.16;93.21
72525;BME280;60547;48.502;8.996;2023-01-26T05:27:50;98240.59;;;-0.12;92.72
72525;BME280;60547;48.502;8.996;2023-01-26T05:30:17;98244.31;;;-0.20;93.85
72525;BME280;60547;48.502;8.996;2023-01-26T05:32:43;98237.56;;;-0.07;93.81
72525;BME280;60547;48.502;8.996;2023-01-26T05:35:09;98249.28;;;-0.26;93.17
72525;BME280;60547;48.502;8.996;2023-01-26T05:37:34;98255.41;;;-0.13;93.08
72525;BME280;60547;48.502;8.996;2023-01-26T05:40:00;98256.56;;;-0.14;93.63
72525;BME280;60547;48.502;8.996;2023-01-26T05:42:26;98252.84;;;-0.06;92.91
72525;BME280;60547;48.502;8.996;2023-01-26T05:44:52;98249.22;;;-0.10;92.99
72525;BME280;60547;48.502;8.996;2023-01-26T05:47:18;98254.00;;;-0.07;93.41
72525;BME280;60547;48.502;8.996;2023-01-26T05:49:44;98259.47;;;-0.07;93.74
72525;BME280;60547;48.502;8.996;2023-01-26T05:52:14;98254.69;;;-0.10;93.01
72525;BME280;60547;48.502;8.996;2023-01-26T05:54:40;98257.41;;;-0.29;92.84
72525;BME280;60547;48.502;8.996;2023-01-26T05:57:06;98261.16;;;-0.18;93.45
72525;BME280;60547;48.502;8.996;2023-01-26T05:59:32;98246.19;;;-0.24;93.28
72525;BME280;60547;48.502;8.996;2023-01-26T06:01:57;98256.41;;;-0.21;93.52
72525;BME280;60547;48.502;8.996;2023-01-26T06:04:23;98246.56;;;-0.07;93.19
72525;BME280;60547;48.502;8.996;2023-01-26T06:06:52;98244.03;;;-0.15;92.33
72525;BME280;60547;48.502;8.996;2023-01-26T06:09:18;98246.66;;;-0.03;92.00
72525;BME280;60547;48.502;8.996;2023-01-26T06:11:44;98252.91;;;-0.03;92.31
72525;BME280;60547;48.502;8.996;2023-01-26T06:14:10;98253.16;;;0.08;92.23
72525;BME280;60547;48.502;8.996;2023-01-26T06:16:36;98244.56;;;-0.10;92.94
72525;BME280;60547;48.502;8.996;2023-01-26T06:19:02;98248.63;;;-0.19;92.33
72525;BME280;60547;48.502;8.996;2023-01-26T06:21:27;98243.28;;;-0.31;93.13
72525;BME280;60547;48.502;8.996;2023-01-26T06:23:53;98245.63;;;-0.14;93.34
72525;BME280;60547;48.502;8.996;2023-01-26T06:26:19;98244.75;;;-0.18;93.41
72525;BME280;60547;48.502;8.996;2023-01-26T06:28:44;98246.94;;;-0.08;92.81
72525;BME280;60547;48.502;8.996;2023-01-26T06:31:10;98257.59;;;-0.03;92.40
72525;BME280;60547;48.502;8.996;2023-01-26T06:33:36;98254.84;;;-0.03;92.50
72525;BME280;60547;48.502;8.996;2023-01-26T06:36:07;98260.81;;;-0.17;92.69
72525;BME280;60547;48.502;8.996;2023-01-26T06:38:34;98261.03;;;-0.06;92.64
72525;BME280;60547;48.502;8.996;2023-01-26T06:41:02;98254.13;;;0.00;92.82
72525;BME280;60547;48.502;8.996;2023-01-26T06:43:29;98256.53;;;0.02;92.79
72525;BME280;60547;48.502;8.996;2023-01-26T06:45:55;98255.94;;;0.12;92.92
72525;BME280;60547;48.502;8.996;2023-01-26T06:48:23;98255.00;;;0.04;92.05
72525;BME280;60547;48.502;8.996;2023-01-26T06:50:50;98249.63;;;0.08;91.42
72525;BME280;60547;48.502;8.996;2023-01-26T06:53:29;98251.13;;;0.05;92.35
72525;BME280;60547;48.502;8.996;2023-01-26T06:55:57;98254.13;;;0.00;91.40
72525;BME280;60547;48.502;8.996;2023-01-26T06:58:22;98246.53;;;0.09;91.84
72525;BME280;60547;48.502;8.996;2023-01-26T07:00:48;98247.66;;;0.08;92.23
72525;BME280;60547;48.502;8.996;2023-01-26T07:03:14;98248.75;;;0.04;91.71
72525;BME280;60547;48.502;8.996;2023-01-26T07:05:39;98247.94;;;0.03;91.51
72525;BME280;60547;48.502;8.996;2023-01-26T07:08:05;98252.84;;;-0.06;92.58
72525;BME280;60547;48.502;8.996;2023-01-26T07:10:34;98250.97;;;-0.02;92.08
72525;BME280;60547;48.502;8.996;2023-01-26T07:12:59;98243.91;;;-0.03;92.14
72525;BME280;60547;48.502;8.996;2023-01-26T07:15:25;98254.78;;;-0.07;92.18
72525;BME280;60547;48.502;8.996;2023-01-26T07:17:50;98255.72;;;0.01;91.86
72525;BME280;60547;48.502;8.996;2023-01-26T07:20:16;98262.00;;;0.02;91.74
72525;BME280;60547;48.502;8.996;2023-01-26T07:22:41;98256.44;;;-0.02;92.20
72525;BME280;60547;48.502;8.996;2023-01-26T07:25:07;98255.00;;;0.04;91.68
72525;BME280;60547;48.502;8.996;2023-01-26T07:27:33;98257.31;;;0.02;91.53
72525;BME280;60547;48.502;8.996;2023-01-26T07:29:58;98267.19;;;0.07;91.59
72525;BME280;60547;48.502;8.996;2023-01-26T07:32:24;98268.03;;;0.11;92.02
72525;BME280;60547;48.502;8.996;2023-01-26T07:34:49;98258.47;;;0.01;91.70
72525;BME280;60547;48.502;8.996;2023-01-26T07:37:14;98263.56;;;0.03;92.01
72525;BME280;60547;48.502;8.996;2023-01-26T07:39:40;98271.84;;;0.06;91.63
72525;BME280;60547;48.502;8.996;2023-01-26T07:42:06;98264.06;;;-0.11;91.97
72525;BME280;60547;48.502;8.996;2023-01-26T07:44:31;98270.56;;;0.00;92.60
72525;BME280;60547;48.502;8.996;2023-01-26T07:46:57;98269.56;;;0.08;92.19
72525;BME280;60547;48.502;8.996;2023-01-26T07:49:22;98267.47;;;0.02;91.35
72525;BME280;60547;48.502;8.996;2023-01-26T07:51:48;98261.91;;;-0.02;91.67
72525;BME280;60547;48.502;8.996;2023-01-26T07:54:13;98269.19;;;0.10;92.10
72525;BME280;60547;48.502;8.996;2023-01-26T07:56:39;98260.69;;;-0.05;91.94
72525;BME280;60547;48.502;8.996;2023-01-26T07:59:04;98264.00;;;0.05;91.28
72525;BME280;60547;48.502;8.996;2023-01-26T08:01:30;98268.41;;;0.09;90.94
72525;BME280;60547;48.502;8.996;2023-01-26T08:03:56;98261.34;;;0.08;90.96
72525;BME280;60547;48.502;8.996;2023-01-26T08:06:21;98263.81;;;0.13;91.30
72525;BME280;60547;48.502;8.996;2023-01-26T08:08:47;98259.91;;;0.14;90.37
72525;BME280;60547;48.502;8.996;2023-01-26T08:11:18;98252.56;;;-0.01;90.79
72525;BME280;60547;48.502;8.996;2023-01-26T08:13:46;98259.19;;;-0.02;90.98
72525;BME280;60547;48.502;8.996;2023-01-26T08:16:12;98259.91;;;-0.05;91.49
72525;BME280;60547;48.502;8.996;2023-01-26T08:18:39;98257.38;;;0.06;91.20
72525;BME280;60547;48.502;8.996;2023-01-26T08:21:05;98255.44;;;0.06;90.85
72525;BME280;60547;48.502;8.996;2023-01-26T08:23:31;98261.34;;;0.08;90.74
72525;BME280;60547;48.502;8.996;2023-01-26T08:26:04;98263.94;;;0.20;90.87
72525;BME280;60547;48.502;8.996;2023-01-26T08:28:30;98261.66;;;0.22;90.83
72525;BME280;60547;48.502;8.996;2023-01-26T08:30:56;98258.34;;;0.13;90.44
72525;BME280;60547;48.502;8.996;2023-01-26T08:33:26;98263.44;;;0.15;91.24
72525;BME280;60547;48.502;8.996;2023-01-26T08:35:52;98254.44;;;0.14;90.83
72525;BME280;60547;48.502;8.996;2023-01-26T08:38:18;98255.88;;;0.08;90.54
72525;BME280;60547;48.502;8.996;2023-01-26T08:40:43;98263.00;;;0.13;90.81
72525;BME280;60547;48.502;8.996;2023-01-26T08:43:08;98257.75;;;0.04;90.61
72525;BME280;60547;48.502;8.996;2023-01-26T08:45:34;98248.38;;;0.05;91.58
72525;BME280;60547;48.502;8.996;2023-01-26T08:47:59;98246.09;;;0.07;91.46
72525;BME280;60547;48.502;8.996;2023-01-26T08:50:25;98256.81;;;0.16;90.96
72525;BME280;60547;48.502;8.996;2023-01-26T08:52:50;98245.53;;;0.17;90.86
72525;BME280;60547;48.502;8.996;2023-01-26T08:55:16;98247.19;;;0.22;90.15
72525;BME280;60547;48.502;8.996;2023-01-26T08:57:41;98246.38;;;0.21;90.35
72525;BME280;60547;48.502;8.996;2023-01-26T09:00:07;98250.69;;;0.22;90.79
72525;BME280;60547;48.502;8.996;2023-01-26T09:02:33;98249.91;;;0.22;90.70
72525;BME280;60547;48.502;8.996;2023-01-26T09:04:59;98252.28;;;0.23;90.91
72525;BME280;60547;48.502;8.996;2023-01-26T09:07:24;98249.97;;;0.25;90.60
72525;BME280;60547;48.502;8.996;2023-01-26T09:09:50;98248.03;;;0.26;90.53
72525;BME280;60547;48.502;8.996;2023-01-26T09:12:16;98246.16;;;0.30;90.50
72525;BME280;60547;48.502;8.996;2023-01-26T09:14:41;98247.69;;;0.27;90.99
72525;BME280;60547;48.502;8.996;2023-01-26T09:17:07;98254.16;;;0.39;90.83
72525;BME280;60547;48.502;8.996;2023-01-26T09:19:32;98246.25;;;0.34;91.01
72525;BME280;60547;48.502;8.996;2023-01-26T09:21:58;98249.41;;;0.36;90.36
72525;BME280;60547;48.502;8.996;2023-01-26T09:24:23;98247.53;;;0.01;90.51
72525;BME280;60547;48.502;8.996;2023-01-26T09:26:49;98245.38;;;0.10;90.16
72525;BME280;60547;48.502;8.996;2023-01-26T09:29:15;98246.38;;;0.21;90.46
72525;BME280;60547;48.502;8.996;2023-01-26T09:31:41;98244.38;;;0.18;89.74
72525;BME280;60547;48.502;8.996;2023-01-26T09:34:06;98247.53;;;0.20;90.17
72525;BME280;60547;48.502;8.996;2023-01-26T09:36:32;98255.75;;;0.40;89.80
72525;BME280;60547;48.502;8.996;2023-01-26T09:38:58;98251.22;;;0.28;88.92
72525;BME280;60547;48.502;8.996;2023-01-26T09:44:30;98252.56;;;0.38;89.13
72525;BME280;60547;48.502;8.996;2023-01-26T09:47:16;98258.91;;;0.42;89.17
72525;BME280;60547;48.502;8.996;2023-01-26T09:49:53;98251.13;;;0.24;88.64
72525;BME280;60547;48.502;8.996;2023-01-26T09:52:50;98264.81;;;0.44;86.51
72525;BME280;60547;48.502;8.996;2023-01-26T09:55:19;98257.31;;;0.02;88.15
72525;BME280;60547;48.502;8.996;2023-01-26T09:57:48;98262.78;;;0.02;88.30
72525;BME280;60547;48.502;8.996;2023-01-26T10:00:27;98262.47;;;-0.12;89.22
72525;BME280;60547;48.502;8.996;2023-01-26T10:08:42;98254.56;;;0.02;88.21
72525;BME280;60547;48.502;8.996;2023-01-26T10:12:13;98256.94;;;0.04;88.74
72525;BME280;60547;48.502;8.996;2023-01-26T10:14:18;98255.66;;;-0.03;89.11
72525;BME280;60547;48.502;8.996;2023-01-26T10:16:48;98253.34;;;-0.01;89.23
72525;BME280;60547;48.502;8.996;2023-01-26T10:19:54;98258.81;;;-0.01;88.70
72525;BME280;60547;48.502;8.996;2023-01-26T10:24:59;98255.81;;;-0.30;87.99
72525;BME280;60547;48.502;8.996;2023-01-26T10:27:27;98253.84;;;-0.14;88.29
72525;BME280;60547;48.502;8.996;2023-01-26T10:29:52;98253.56;;;-0.09;87.59
72525;BME280;60547;48.502;8.996;2023-01-26T10:32:18;98255.09;;;0.08;87.67
72525;BME280;60547;48.502;8.996;2023-01-26T10:34:48;98260.16;;;-0.10;86.67
72525;BME280;60547;48.502;8.996;2023-01-26T10:37:28;98256.13;;;-0.16;87.55
72525;BME280;60547;48.502;8.996;2023-01-26T10:39:59;98257.06;;;-0.09;86.72
72525;BME280;60547;48.502;8.996;2023-01-26T10:42:33;98257.88;;;-0.08;85.53
72525;BME280;60547;48.502;8.996;2023-01-26T10:45:00;98251.88;;;-0.14;86.12
72525;BME280;60547;48.502;8.996;2023-01-26T10:47:27;98250.03;;;-0.10;86.14
72525;BME280;60547;48.502;8.996;2023-01-26T10:50:23;98259.41;;;-0.26;86.89
72525;BME280;60547;48.502;8.996;2023-01-26T10:52:57;98262.47;;;-0.12;86.53
72525;BME280;60547;48.502;8.996;2023-01-26T10:55:23;98260.31;;;-0.03;86.03
72525;BME280;60547;48.502;8.996;2023-01-26T10:57:49;98251.56;;;0.07;86.02
72525;BME280;60547;48.502;8.996;2023-01-26T11:00:29;98254.16;;;0.19;85.65
72525;BME280;60547;48.502;8.996;2023-01-26T11:03:17;98255.41;;;-0.13;85.37
72525;BME280;60547;48.502;8.996;2023-01-26T11:05:43;98244.72;;;-0.03;85.67
72525;BME280;60547;48.502;8.996;2023-01-26T11:08:35;98242.97;;;-0.11;86.39
72525;BME280;60547;48.502;8.996;2023-01-26T11:11:03;98244.97;;;-0.27;85.33
72525;BME280;60547;48.502;8.996;2023-01-26T11:13:31;98240.59;;;-0.12;86.12
72525;BME280;60547;48.502;8.996;2023-01-26T11:16:02;98233.91;;;-0.15;86.09
72525;BME280;60547;48.502;8.996;2023-01-26T11:18:53;98242.34;;;-0.04;86.70
72525;BME280;60547;48.502;8.996;2023-01-26T11:21:25;98234.69;;;-0.14;85.59
72525;BME280;60547;48.502;8.996;2023-01-26T11:29:33;98241.03;;;-0.10;86.24
72525;BME280;60547;48.502;8.996;2023-01-26T11:32:25;98239.09;;;0.10;85.23
72525;BME280;60547;48.502;8.996;2023-01-26T11:37:59;98225.06;;;-0.08;83.65
72525;BME280;60547;48.502;8.996;2023-01-26T11:48:23;98210.09;;;0.05;83.56
72525;BME280;60547;48.502;8.996;2023-01-26T11:50:57;98217.56;;;-0.11;85.79
72525;BME280;60547;48.502;8.996;2023-01-26T11:56:35;98204.97;;;0.04;83.42
72525;BME280;60547;48.502;8.996;2023-01-26T11:59:08;98216.78;;;-0.12;82.72
72525;BME280;60547;48.502;8.996;2023-01-26T12:01:47;98213.06;;;-0.39;85.28
72525;BME280;60547;48.502;8.996;2023-01-26T12:04:20;98212.38;;;-0.16;85.22
72525;BME280;60547;48.502;8.996;2023-01-26T12:06:53;98206.28;;;-0.10;85.45
72525;BME280;60547;48.502;8.996;2023-01-26T12:09:31;98200.72;;;-0.13;85.71
72525;BME280;60547;48.502;8.996;2023-01-26T12:12:07;98202.44;;;-0.24;85.31
72525;BME280;60547;48.502;8.996;2023-01-26T12:20:23;98197.03;;;-0.40;85.55
72525;BME280;60547;48.502;8.996;2023-01-26T12:28:23;98183.75;;;-0.03;84.04
72525;BME280;60547;48.502;8.996;2023-01-26T12:30:56;98178.41;;;-0.15;84.19
72525;BME280;60547;48.502;8.996;2023-01-26T12:33:25;98181.16;;;-0.15;84.05
72525;BME280;60547;48.502;8.996;2023-01-26T12:49:42;98157.38;;;-0.50;84.47
72525;BME280;60547;48.502;8.996;2023-01-26T12:52:17;98154.50;;;-0.38;84.33
72525;BME280;60547;48.502;8.996;2023-01-26T12:54:53;98164.88;;;-0.27;84.28
72525;BME280;60547;48.502;8.996;2023-01-26T12:57:25;98152.50;;;-0.21;81.75
72525;BME280;60547;48.502;8.996;2023-01-26T13:00:02;98152.50;;;-0.21;82.78
72525;BME280;60547;48.502;8.996;2023-01-26T13:02:30;98162.16;;;-0.08;81.59
72525;BME280;60547;48.502;8.996;2023-01-26T13:04:59;98151.16;;;-0.12;83.13
72525;BME280;60547;48.502;8.996;2023-01-26T13:07:37;98168.34;;;0.08;81.76
72525;BME280;60547;48.502;8.996;2023-01-26T13:12:50;98161.94;;;-0.19;82.66
72525;BME280;60547;48.502;8.996;2023-01-26T13:15:19;98171.94;;;-0.26;81.68
72525;BME280;60547;48.502;8.996;2023-01-26T13:17:53;98170.56;;;-0.36;82.17
72525;BME280;60547;48.502;8.996;2023-01-26T13:22:49;98170.50;;;-0.20;83.03
72525;BME280;60547;48.502;8.996;2023-01-26T13:25:18;98160.78;;;-0.18;83.21
72525;BME280;60547;48.502;8.996;2023-01-26T13:27:53;98163.97;;;-0.16;82.75
72525;BME280;60547;48.502;8.996;2023-01-26T13:35:12;98169.13;;;-0.30;83.27
72525;BME280;60547;48.502;8.996;2023-01-26T13:37:59;98166.91;;;-0.24;83.73
72525;BME280;60547;48.502;8.996;2023-01-26T13:40:30;98156.69;;;-0.27;83.47
72525;BME280;60547;48.502;8.996;2023-01-26T13:43:29;98166.63;;;-0.19;83.01
72525;BME280;60547;48.502;8.996;2023-01-26T13:51:14;98170.03;;;-0.42;84.09
72525;BME280;60547;48.502;8.996;2023-01-26T13:56:24;98166.47;;;-0.26;82.89
72525;BME280;60547;48.502;8.996;2023-01-26T13:58:50;98164.59;;;-0.22;82.94
72525;BME280;60547;48.502;8.996;2023-01-26T14:01:16;98169.41;;;-0.35;83.68
72525;BME280;60547;48.502;8.996;2023-01-26T14:03:43;98158.97;;;-0.29;83.64
72525;BME280;60547;48.502;8.996;2023-01-26T14:06:17;98168.56;;;-0.20;83.71
72525;BME280;60547;48.502;8.996;2023-01-26T14:09:04;98167.13;;;-0.68;84.12
72525;BME280;60547;48.502;8.996;2023-01-26T14:11:32;98149.25;;;-0.81;85.09
72525;BME280;60547;48.502;8.996;2023-01-26T14:13:59;98159.00;;;-0.64;84.97
72525;BME280;60547;48.502;8.996;2023-01-26T14:16:31;98166.44;;;-0.46;85.67
72525;BME280;60547;48.502;8.996;2023-01-26T14:21:59;98158.88;;;-0.52;83.80
72525;BME280;60547;48.502;8.996;2023-01-26T14:26:50;98165.69;;;-0.62;84.41
72525;BME280;60547;48.502;8.996;2023-01-26T14:29:24;98175.91;;;-0.59;84.31
72525;BME280;60547;48.502;8.996;2023-01-26T14:31:51;98174.53;;;-0.69;85.30
72525;BME280;60547;48.502;8.996;2023-01-26T14:34:23;98170.16;;;-0.54;85.19
72525;BME280;60547;48.502;8.996;2023-01-26T14:37:15;98170.63;;;-0.32;83.98
72525;BME280;60547;48.502;8.996;2023-01-26T14:39:41;98164.31;;;-0.37;84.42
72525;BME280;60547;48.502;8.996;2023-01-26T14:42:14;98171.56;;;-0.25;84.21